Terminal Aerodrome Forecast
Issued by NWS

Home | Current Version | Previous Version | Text Only | Print | Product List | Glossary On
Versions: 1 2 3 4 5 6 7 8 9 10 11 12 13 14 15 16 17 18 19 20 21 22 23 24 25 26 27 28 29 30 31 32 33 34
000
FTUS41 KBOX 041121
TAFBAF
TAF
KBAF 041121Z 0412/0512 VRB03KT P6SM BKN120
     FM041400 00000KT P6SM VCSH BKN110
     FM042000 34004KT P6SM OVC080
     FM050700 00000KT 6SM BR SCT070=

USA.gov is the U.S. government's official web portal to all federal, state and local government web resources and services.